sensor_id;sensor_type;location;lat;lon;timestamp;P1;durP1;ratioP1;P2;durP2;ratioP2
77822;SDS011;67013;49.730;17.292;2024-01-10T00:00:05;1.70;;;1.10;;
77822;SDS011;67013;49.730;17.292;2024-01-10T00:02:36;1.50;;;1.00;;
77822;SDS011;67013;49.730;17.292;2024-01-10T00:05:06;1.30;;;1.20;;
77822;SDS011;67013;49.730;17.292;2024-01-10T00:07:36;1.30;;;1.00;;
77822;SDS011;67013;49.730;17.292;2024-01-10T00:10:06;1.30;;;0.90;;
77822;SDS011;67013;49.730;17.292;2024-01-10T00:12:37;1.70;;;1.10;;
77822;SDS011;67013;49.730;17.292;2024-01-10T00:15:07;1.70;;;1.20;;
77822;SDS011;67013;49.730;17.292;2024-01-10T00:17:37;1.60;;;1.20;;
77822;SDS011;67013;49.730;17.292;2024-01-10T00:20:08;1.50;;;1.10;;
77822;SDS011;67013;49.730;17.292;2024-01-10T00:22:38;1.50;;;1.20;;
77822;SDS011;67013;49.730;17.292;2024-01-10T00:25:08;1.50;;;1.00;;
77822;SDS011;67013;49.730;17.292;2024-01-10T00:27:37;1.20;;;0.90;;
77822;SDS011;67013;49.730;17.292;2024-01-10T00:30:08;1.20;;;1.00;;
77822;SDS011;67013;49.730;17.292;2024-01-10T00:32:38;1.30;;;1.00;;
77822;SDS011;67013;49.730;17.292;2024-01-10T00:35:08;1.10;;;0.80;;
77822;SDS011;67013;49.730;17.292;2024-01-10T00:37:37;1.20;;;0.90;;
77822;SDS011;67013;49.730;17.292;2024-01-10T00:40:08;1.50;;;1.30;;
77822;SDS011;67013;49.730;17.292;2024-01-10T00:42:38;1.60;;;1.50;;
77822;SDS011;67013;49.730;17.292;2024-01-10T00:45:08;1.20;;;0.80;;
77822;SDS011;67013;49.730;17.292;2024-01-10T00:47:38;1.80;;;1.30;;
77822;SDS011;67013;49.730;17.292;2024-01-10T00:50:08;1.20;;;1.10;;
77822;SDS011;67013;49.730;17.292;2024-01-10T00:52:38;1.30;;;0.90;;
77822;SDS011;67013;49.730;17.292;2024-01-10T00:55:08;1.00;;;0.70;;
77822;SDS011;67013;49.730;17.292;2024-01-10T00:57:38;1.60;;;1.30;;
77822;SDS011;67013;49.730;17.292;2024-01-10T01:00:09;1.80;;;1.70;;
77822;SDS011;67013;49.730;17.292;2024-01-10T01:02:40;1.70;;;1.20;;
77822;SDS011;67013;49.730;17.292;2024-01-10T01:05:10;1.80;;;1.30;;
77822;SDS011;67013;49.730;17.292;2024-01-10T01:07:39;1.80;;;1.10;;
77822;SDS011;67013;49.730;17.292;2024-01-10T01:10:10;1.30;;;0.90;;
77822;SDS011;67013;49.730;17.292;2024-01-10T01:12:39;1.20;;;1.00;;
77822;SDS011;67013;49.730;17.292;2024-01-10T01:15:09;1.80;;;1.10;;
77822;SDS011;67013;49.730;17.292;2024-01-10T01:17:39;1.60;;;1.30;;
77822;SDS011;67013;49.730;17.292;2024-01-10T01:20:09;1.10;;;0.90;;
77822;SDS011;67013;49.730;17.292;2024-01-10T01:22:38;1.80;;;1.10;;
77822;SDS011;67013;49.730;17.292;2024-01-10T01:25:08;1.10;;;0.80;;
77822;SDS011;67013;49.730;17.292;2024-01-10T01:27:38;1.80;;;1.70;;
77822;SDS011;67013;49.730;17.292;2024-01-10T01:30:09;1.30;;;1.00;;
77822;SDS011;67013;49.730;17.292;2024-01-10T01:32:39;1.40;;;1.10;;
77822;SDS011;67013;49.730;17.292;2024-01-10T01:35:09;1.70;;;1.40;;
77822;SDS011;67013;49.730;17.292;2024-01-10T01:37:38;1.50;;;1.00;;
77822;SDS011;67013;49.730;17.292;2024-01-10T01:40:09;1.40;;;1.10;;
77822;SDS011;67013;49.730;17.292;2024-01-10T01:42:39;1.50;;;1.00;;
77822;SDS011;67013;49.730;17.292;2024-01-10T01:45:09;1.20;;;0.90;;
77822;SDS011;67013;49.730;17.292;2024-01-10T01:47:39;1.60;;;1.00;;
77822;SDS011;67013;49.730;17.292;2024-01-10T01:50:10;1.50;;;1.10;;
77822;SDS011;67013;49.730;17.292;2024-01-10T01:52:39;1.30;;;0.90;;
77822;SDS011;67013;49.730;17.292;2024-01-10T01:55:09;1.20;;;0.90;;
77822;SDS011;67013;49.730;17.292;2024-01-10T01:57:39;1.20;;;0.90;;
77822;SDS011;67013;49.730;17.292;2024-01-10T02:00:10;1.40;;;1.00;;
77822;SDS011;67013;49.730;17.292;2024-01-10T02:02:40;1.70;;;1.30;;
77822;SDS011;67013;49.730;17.292;2024-01-10T02:05:11;1.60;;;1.20;;
77822;SDS011;67013;49.730;17.292;2024-01-10T02:07:42;1.40;;;1.00;;
77822;SDS011;67013;49.730;17.292;2024-01-10T02:10:12;1.20;;;1.00;;
77822;SDS011;67013;49.730;17.292;2024-01-10T02:12:42;1.40;;;1.10;;
77822;SDS011;67013;49.730;17.292;2024-01-10T02:15:11;1.00;;;0.80;;
77822;SDS011;67013;49.730;17.292;2024-01-10T02:17:41;1.40;;;1.00;;
77822;SDS011;67013;49.730;17.292;2024-01-10T02:20:11;1.30;;;1.10;;
77822;SDS011;67013;49.730;17.292;2024-01-10T02:22:43;1.40;;;0.90;;
77822;SDS011;67013;49.730;17.292;2024-01-10T02:25:13;1.30;;;0.80;;
77822;SDS011;67013;49.730;17.292;2024-01-10T02:27:42;1.60;;;1.20;;
77822;SDS011;67013;49.730;17.292;2024-01-10T02:30:12;1.40;;;1.00;;
77822;SDS011;67013;49.730;17.292;2024-01-10T02:32:42;1.70;;;1.20;;
77822;SDS011;67013;49.730;17.292;2024-01-10T02:35:11;1.20;;;0.80;;
77822;SDS011;67013;49.730;17.292;2024-01-10T02:37:41;1.40;;;1.20;;
77822;SDS011;67013;49.730;17.292;2024-01-10T02:40:11;1.60;;;1.00;;
77822;SDS011;67013;49.730;17.292;2024-01-10T02:42:41;1.50;;;1.10;;
77822;SDS011;67013;49.730;17.292;2024-01-10T02:45:11;1.40;;;0.90;;
77822;SDS011;67013;49.730;17.292;2024-01-10T02:47:44;1.30;;;1.00;;
77822;SDS011;67013;49.730;17.292;2024-01-10T02:50:14;1.40;;;0.90;;
77822;SDS011;67013;49.730;17.292;2024-01-10T02:52:43;1.30;;;0.90;;
77822;SDS011;67013;49.730;17.292;2024-01-10T02:55:13;1.10;;;0.80;;
77822;SDS011;67013;49.730;17.292;2024-01-10T02:57:43;1.50;;;1.10;;
77822;SDS011;67013;49.730;17.292;2024-01-10T03:00:13;1.60;;;1.00;;
77822;SDS011;67013;49.730;17.292;2024-01-10T03:02:43;1.40;;;1.00;;
77822;SDS011;67013;49.730;17.292;2024-01-10T03:05:13;1.70;;;1.20;;
77822;SDS011;67013;49.730;17.292;2024-01-10T03:07:42;1.10;;;0.80;;
77822;SDS011;67013;49.730;17.292;2024-01-10T03:10:12;1.20;;;0.90;;
77822;SDS011;67013;49.730;17.292;2024-01-10T03:12:41;1.30;;;0.90;;
77822;SDS011;67013;49.730;17.292;2024-01-10T03:15:11;1.50;;;1.10;;
77822;SDS011;67013;49.730;17.292;2024-01-10T03:17:41;1.50;;;1.00;;
77822;SDS011;67013;49.730;17.292;2024-01-10T03:20:11;1.80;;;1.40;;
77822;SDS011;67013;49.730;17.292;2024-01-10T03:22:41;1.00;;;0.80;;
77822;SDS011;67013;49.730;17.292;2024-01-10T03:25:10;1.40;;;1.00;;
77822;SDS011;67013;49.730;17.292;2024-01-10T03:27:40;1.30;;;0.90;;
77822;SDS011;67013;49.730;17.292;2024-01-10T03:30:10;1.30;;;1.00;;
77822;SDS011;67013;49.730;17.292;2024-01-10T03:32:40;1.50;;;1.20;;
77822;SDS011;67013;49.730;17.292;2024-01-10T03:35:10;1.10;;;0.70;;
77822;SDS011;67013;49.730;17.292;2024-01-10T03:37:40;1.40;;;1.00;;
77822;SDS011;67013;49.730;17.292;2024-01-10T03:40:10;1.40;;;1.00;;
77822;SDS011;67013;49.730;17.292;2024-01-10T03:42:40;1.40;;;0.90;;
77822;SDS011;67013;49.730;17.292;2024-01-10T03:45:10;1.30;;;0.90;;
77822;SDS011;67013;49.730;17.292;2024-01-10T03:47:43;1.50;;;1.00;;
77822;SDS011;67013;49.730;17.292;2024-01-10T03:50:16;1.70;;;1.00;;
77822;SDS011;67013;49.730;17.292;2024-01-10T03:52:46;1.60;;;1.00;;
77822;SDS011;67013;49.730;17.292;2024-01-10T03:55:15;1.20;;;0.80;;
77822;SDS011;67013;49.730;17.292;2024-01-10T03:57:45;1.30;;;0.90;;
77822;SDS011;67013;49.730;17.292;2024-01-10T04:00:15;1.50;;;1.20;;
77822;SDS011;67013;49.730;17.292;2024-01-10T04:02:44;1.80;;;1.10;;
77822;SDS011;67013;49.730;17.292;2024-01-10T04:05:14;1.30;;;1.00;;
77822;SDS011;67013;49.730;17.292;2024-01-10T04:07:43;1.20;;;0.90;;
77822;SDS011;67013;49.730;17.292;2024-01-10T04:10:13;1.10;;;0.80;;
77822;SDS011;67013;49.730;17.292;2024-01-10T04:12:42;1.60;;;1.10;;
77822;SDS011;67013;49.730;17.292;2024-01-10T04:15:12;1.20;;;0.90;;
77822;SDS011;67013;49.730;17.292;2024-01-10T04:17:41;1.40;;;0.90;;
77822;SDS011;67013;49.730;17.292;2024-01-10T04:20:11;1.60;;;1.20;;
77822;SDS011;67013;49.730;17.292;2024-01-10T04:22:41;1.70;;;1.30;;
77822;SDS011;67013;49.730;17.292;2024-01-10T04:25:11;1.50;;;1.20;;
77822;SDS011;67013;49.730;17.292;2024-01-10T04:27:40;1.50;;;1.00;;
77822;SDS011;67013;49.730;17.292;2024-01-10T04:30:11;1.70;;;1.10;;
77822;SDS011;67013;49.730;17.292;2024-01-10T04:32:41;1.50;;;1.00;;
77822;SDS011;67013;49.730;17.292;2024-01-10T04:35:10;1.90;;;1.30;;
77822;SDS011;67013;49.730;17.292;2024-01-10T04:37:40;1.60;;;1.20;;
77822;SDS011;67013;49.730;17.292;2024-01-10T04:40:10;1.60;;;1.10;;
77822;SDS011;67013;49.730;17.292;2024-01-10T04:42:41;1.50;;;1.00;;
77822;SDS011;67013;49.730;17.292;2024-01-10T04:45:11;1.40;;;1.30;;
77822;SDS011;67013;49.730;17.292;2024-01-10T04:47:41;1.40;;;1.10;;
77822;SDS011;67013;49.730;17.292;2024-01-10T04:50:11;1.20;;;0.90;;
77822;SDS011;67013;49.730;17.292;2024-01-10T04:52:41;1.70;;;1.30;;
77822;SDS011;67013;49.730;17.292;2024-01-10T04:55:10;1.10;;;0.70;;
77822;SDS011;67013;49.730;17.292;2024-01-10T04:57:40;1.60;;;1.00;;
77822;SDS011;67013;49.730;17.292;2024-01-10T05:00:10;1.60;;;1.00;;
77822;SDS011;67013;49.730;17.292;2024-01-10T05:02:40;1.50;;;1.00;;
77822;SDS011;67013;49.730;17.292;2024-01-10T05:05:09;1.70;;;1.30;;
77822;SDS011;67013;49.730;17.292;2024-01-10T05:07:39;1.70;;;1.10;;
77822;SDS011;67013;49.730;17.292;2024-01-10T05:10:09;1.30;;;1.00;;
77822;SDS011;67013;49.730;17.292;2024-01-10T05:12:38;1.40;;;1.00;;
77822;SDS011;67013;49.730;17.292;2024-01-10T05:15:08;1.60;;;1.10;;
77822;SDS011;67013;49.730;17.292;2024-01-10T05:17:38;1.50;;;1.00;;
77822;SDS011;67013;49.730;17.292;2024-01-10T05:20:08;1.20;;;1.00;;
77822;SDS011;67013;49.730;17.292;2024-01-10T05:22:40;2.30;;;1.90;;
77822;SDS011;67013;49.730;17.292;2024-01-10T05:25:09;1.10;;;0.80;;
77822;SDS011;67013;49.730;17.292;2024-01-10T05:27:39;1.00;;;0.90;;
77822;SDS011;67013;49.730;17.292;2024-01-10T05:30:10;1.60;;;1.20;;
77822;SDS011;67013;49.730;17.292;2024-01-10T05:32:40;1.60;;;1.00;;
77822;SDS011;67013;49.730;17.292;2024-01-10T05:35:13;1.60;;;1.10;;
77822;SDS011;67013;49.730;17.292;2024-01-10T05:37:42;1.70;;;1.10;;
77822;SDS011;67013;49.730;17.292;2024-01-10T05:40:12;1.50;;;1.40;;
77822;SDS011;67013;49.730;17.292;2024-01-10T05:42:42;1.60;;;1.20;;
77822;SDS011;67013;49.730;17.292;2024-01-10T05:45:11;1.80;;;1.10;;
77822;SDS011;67013;49.730;17.292;2024-01-10T05:47:44;1.40;;;1.20;;
77822;SDS011;67013;49.730;17.292;2024-01-10T05:50:14;1.30;;;0.90;;
77822;SDS011;67013;49.730;17.292;2024-01-10T05:52:45;1.30;;;1.10;;
77822;SDS011;67013;49.730;17.292;2024-01-10T05:55:14;1.30;;;1.10;;
77822;SDS011;67013;49.730;17.292;2024-01-10T05:57:44;1.40;;;1.00;;
77822;SDS011;67013;49.730;17.292;2024-01-10T06:00:14;1.40;;;0.90;;
77822;SDS011;67013;49.730;17.292;2024-01-10T06:02:44;1.40;;;0.90;;
77822;SDS011;67013;49.730;17.292;2024-01-10T06:05:14;1.10;;;0.80;;
77822;SDS011;67013;49.730;17.292;2024-01-10T06:07:43;1.70;;;1.10;;
77822;SDS011;67013;49.730;17.292;2024-01-10T06:10:13;1.50;;;1.00;;
77822;SDS011;67013;49.730;17.292;2024-01-10T06:12:42;1.50;;;0.90;;
77822;SDS011;67013;49.730;17.292;2024-01-10T06:15:12;1.60;;;1.40;;
77822;SDS011;67013;49.730;17.292;2024-01-10T06:17:42;1.70;;;1.20;;
77822;SDS011;67013;49.730;17.292;2024-01-10T06:20:12;1.40;;;1.00;;
77822;SDS011;67013;49.730;17.292;2024-01-10T06:22:42;1.60;;;1.10;;
77822;SDS011;67013;49.730;17.292;2024-01-10T06:25:13;1.70;;;1.20;;
77822;SDS011;67013;49.730;17.292;2024-01-10T06:27:42;1.80;;;1.10;;
77822;SDS011;67013;49.730;17.292;2024-01-10T06:30:12;1.70;;;1.10;;
77822;SDS011;67013;49.730;17.292;2024-01-10T06:32:42;1.90;;;1.50;;
77822;SDS011;67013;49.730;17.292;2024-01-10T06:35:11;1.40;;;1.00;;
77822;SDS011;67013;49.730;17.292;2024-01-10T06:37:41;1.20;;;0.90;;
77822;SDS011;67013;49.730;17.292;2024-01-10T06:40:12;1.70;;;1.20;;
77822;SDS011;67013;49.730;17.292;2024-01-10T06:42:41;1.20;;;0.90;;
77822;SDS011;67013;49.730;17.292;2024-01-10T06:45:11;1.70;;;1.20;;
77822;SDS011;67013;49.730;17.292;2024-01-10T06:47:41;1.70;;;1.30;;
77822;SDS011;67013;49.730;17.292;2024-01-10T06:50:11;1.70;;;1.20;;
77822;SDS011;67013;49.730;17.292;2024-01-10T06:52:40;2.00;;;1.40;;
77822;SDS011;67013;49.730;17.292;2024-01-10T06:55:10;1.90;;;1.40;;
77822;SDS011;67013;49.730;17.292;2024-01-10T06:57:40;1.40;;;1.10;;
77822;SDS011;67013;49.730;17.292;2024-01-10T07:00:10;1.70;;;1.20;;
77822;SDS011;67013;49.730;17.292;2024-01-10T07:02:41;1.80;;;1.10;;
77822;SDS011;67013;49.730;17.292;2024-01-10T07:05:10;1.20;;;0.90;;
77822;SDS011;67013;49.730;17.292;2024-01-10T07:07:40;1.30;;;1.00;;
77822;SDS011;67013;49.730;17.292;2024-01-10T07:10:10;1.50;;;1.20;;
77822;SDS011;67013;49.730;17.292;2024-01-10T07:12:40;1.30;;;1.00;;
77822;SDS011;67013;49.730;17.292;2024-01-10T07:15:10;1.50;;;1.00;;
77822;SDS011;67013;49.730;17.292;2024-01-10T07:17:40;1.80;;;1.00;;
77822;SDS011;67013;49.730;17.292;2024-01-10T07:20:10;1.40;;;1.30;;
77822;SDS011;67013;49.730;17.292;2024-01-10T07:22:40;1.50;;;1.00;;
77822;SDS011;67013;49.730;17.292;2024-01-10T07:25:10;1.60;;;1.10;;
77822;SDS011;67013;49.730;17.292;2024-01-10T07:27:41;1.50;;;1.30;;
77822;SDS011;67013;49.730;17.292;2024-01-10T07:30:12;1.20;;;0.90;;
77822;SDS011;67013;49.730;17.292;2024-01-10T07:32:41;1.60;;;1.00;;
77822;SDS011;67013;49.730;17.292;2024-01-10T07:35:12;1.30;;;1.00;;
77822;SDS011;67013;49.730;17.292;2024-01-10T07:37:42;1.80;;;1.10;;
77822;SDS011;67013;49.730;17.292;2024-01-10T07:40:11;1.70;;;1.60;;
77822;SDS011;67013;49.730;17.292;2024-01-10T07:42:41;1.40;;;0.90;;
77822;SDS011;67013;49.730;17.292;2024-01-10T07:45:12;1.50;;;1.20;;
77822;SDS011;67013;49.730;17.292;2024-01-10T07:47:41;1.50;;;1.00;;
77822;SDS011;67013;49.730;17.292;2024-01-10T07:50:13;1.00;;;0.80;;
77822;SDS011;67013;49.730;17.292;2024-01-10T07:52:42;1.10;;;0.80;;
77822;SDS011;67013;49.730;17.292;2024-01-10T07:55:12;1.00;;;0.90;;
77822;SDS011;67013;49.730;17.292;2024-01-10T07:57:42;1.20;;;1.00;;
77822;SDS011;67013;49.730;17.292;2024-01-10T08:00:12;1.40;;;1.00;;
77822;SDS011;67013;49.730;17.292;2024-01-10T08:02:43;1.20;;;0.80;;
77822;SDS011;67013;49.730;17.292;2024-01-10T08:05:12;1.00;;;0.80;;
77822;SDS011;67013;49.730;17.292;2024-01-10T08:07:42;0.90;;;0.60;;
77822;SDS011;67013;49.730;17.292;2024-01-10T08:10:11;0.90;;;0.70;;
77822;SDS011;67013;49.730;17.292;2024-01-10T08:12:41;0.90;;;0.70;;
77822;SDS011;67013;49.730;17.292;2024-01-10T08:15:11;0.50;;;0.50;;
77822;SDS011;67013;49.730;17.292;2024-01-10T08:17:42;0.90;;;0.70;;
77822;SDS011;67013;49.730;17.292;2024-01-10T08:20:11;1.20;;;0.70;;
77822;SDS011;67013;49.730;17.292;2024-01-10T08:22:46;0.90;;;0.70;;
77822;SDS011;67013;49.730;17.292;2024-01-10T08:25:15;1.30;;;0.80;;
77822;SDS011;67013;49.730;17.292;2024-01-10T08:27:45;1.00;;;0.70;;
77822;SDS011;67013;49.730;17.292;2024-01-10T08:30:15;1.10;;;0.90;;
77822;SDS011;67013;49.730;17.292;2024-01-10T08:32:45;1.30;;;0.80;;
77822;SDS011;67013;49.730;17.292;2024-01-10T08:35:15;1.00;;;0.70;;
77822;SDS011;67013;49.730;17.292;2024-01-10T08:37:45;1.10;;;0.70;;
77822;SDS011;67013;49.730;17.292;2024-01-10T08:40:15;0.90;;;0.80;;
77822;SDS011;67013;49.730;17.292;2024-01-10T08:42:44;1.20;;;0.70;;
77822;SDS011;67013;49.730;17.292;2024-01-10T08:45:14;1.00;;;0.70;;
77822;SDS011;67013;49.730;17.292;2024-01-10T08:47:43;1.10;;;0.70;;
77822;SDS011;67013;49.730;17.292;2024-01-10T08:50:13;1.30;;;0.80;;
77822;SDS011;67013;49.730;17.292;2024-01-10T08:52:42;1.00;;;0.70;;
77822;SDS011;67013;49.730;17.292;2024-01-10T08:55:12;1.10;;;0.70;;
77822;SDS011;67013;49.730;17.292;2024-01-10T08:57:41;0.90;;;0.60;;
77822;SDS011;67013;49.730;17.292;2024-01-10T09:00:14;1.00;;;0.70;;
77822;SDS011;67013;49.730;17.292;2024-01-10T09:02:45;0.80;;;0.70;;
77822;SDS011;67013;49.730;17.292;2024-01-10T09:05:15;0.70;;;0.60;;
77822;SDS011;67013;49.730;17.292;2024-01-10T09:07:45;0.90;;;0.70;;
77822;SDS011;67013;49.730;17.292;2024-01-10T09:10:14;0.80;;;0.60;;
77822;SDS011;67013;49.730;17.292;2024-01-10T09:12:44;0.90;;;0.70;;
77822;SDS011;67013;49.730;17.292;2024-01-10T09:15:13;0.80;;;0.60;;
77822;SDS011;67013;49.730;17.292;2024-01-10T09:17:43;0.90;;;0.60;;
77822;SDS011;67013;49.730;17.292;2024-01-10T09:20:14;0.80;;;0.60;;
77822;SDS011;67013;49.730;17.292;2024-01-10T09:22:44;1.20;;;0.70;;
77822;SDS011;67013;49.730;17.292;2024-01-10T09:25:13;1.00;;;0.70;;
77822;SDS011;67013;49.730;17.292;2024-01-10T09:27:43;0.70;;;0.60;;
77822;SDS011;67013;49.730;17.292;2024-01-10T09:30:14;1.00;;;0.60;;
77822;SDS011;67013;49.730;17.292;2024-01-10T09:32:44;1.20;;;0.80;;
77822;SDS011;67013;49.730;17.292;2024-01-10T09:35:14;0.90;;;0.70;;
77822;SDS011;67013;49.730;17.292;2024-01-10T09:37:44;0.80;;;0.80;;
77822;SDS011;67013;49.730;17.292;2024-01-10T09:40:15;0.50;;;0.50;;
77822;SDS011;67013;49.730;17.292;2024-01-10T09:42:48;0.40;;;0.40;;
77822;SDS011;67013;49.730;17.292;2024-01-10T09:45:18;0.70;;;0.60;;
77822;SDS011;67013;49.730;17.292;2024-01-10T09:47:54;0.80;;;0.60;;
77822;SDS011;67013;49.730;17.292;2024-01-10T09:50:24;0.80;;;0.60;;
77822;SDS011;67013;49.730;17.292;2024-01-10T09:52:58;1.10;;;0.80;;
77822;SDS011;67013;49.730;17.292;2024-01-10T09:55:36;0.80;;;0.70;;
77822;SDS011;67013;49.730;17.292;2024-01-10T09:58:06;0.80;;;0.60;;
77822;SDS011;67013;49.730;17.292;2024-01-10T10:00:37;0.80;;;0.70;;
77822;SDS011;67013;49.730;17.292;2024-01-10T10:03:08;0.60;;;0.50;;
77822;SDS011;67013;49.730;17.292;2024-01-10T10:05:39;0.50;;;0.50;;
77822;SDS011;67013;49.730;17.292;2024-01-10T10:08:10;0.60;;;0.50;;
77822;SDS011;67013;49.730;17.292;2024-01-10T10:10:41;0.60;;;0.60;;
77822;SDS011;67013;49.730;17.292;2024-01-10T10:13:11;0.60;;;0.50;;
77822;SDS011;67013;49.730;17.292;2024-01-10T10:16:03;0.60;;;0.60;;
77822;SDS011;67013;49.730;17.292;2024-01-10T10:18:33;0.50;;;0.50;;
77822;SDS011;67013;49.730;17.292;2024-01-10T10:21:09;0.90;;;0.70;;
77822;SDS011;67013;49.730;17.292;2024-01-10T10:23:41;0.60;;;0.50;;
77822;SDS011;67013;49.730;17.292;2024-01-10T10:26:24;0.50;;;0.50;;
77822;SDS011;67013;49.730;17.292;2024-01-10T10:28:56;0.50;;;0.50;;
77822;SDS011;67013;49.730;17.292;2024-01-10T10:31:25;0.60;;;0.50;;
77822;SDS011;67013;49.730;17.292;2024-01-10T10:33:55;0.40;;;0.40;;
77822;SDS011;67013;49.730;17.292;2024-01-10T10:36:26;0.50;;;0.50;;
77822;SDS011;67013;49.730;17.292;2024-01-10T10:38:58;0.40;;;0.40;;
77822;SDS011;67013;49.730;17.292;2024-01-10T10:41:31;0.60;;;0.50;;
77822;SDS011;67013;49.730;17.292;2024-01-10T10:44:03;0.60;;;0.50;;
77822;SDS011;67013;49.730;17.292;2024-01-10T10:46:37;0.70;;;0.50;;
77822;SDS011;67013;49.730;17.292;2024-01-10T10:51:39;0.60;;;0.40;;
77822;SDS011;67013;49.730;17.292;2024-01-10T10:54:09;0.60;;;0.60;;
77822;SDS011;67013;49.730;17.292;2024-01-10T10:59:11;0.60;;;0.60;;
77822;SDS011;67013;49.730;17.292;2024-01-10T11:01:43;0.60;;;0.60;;
77822;SDS011;67013;49.730;17.292;2024-01-10T11:04:14;0.60;;;0.50;;
77822;SDS011;67013;49.730;17.292;2024-01-10T11:06:44;0.30;;;0.30;;
77822;SDS011;67013;49.730;17.292;2024-01-10T11:09:14;0.80;;;0.60;;
77822;SDS011;67013;49.730;17.292;2024-01-10T11:11:55;0.50;;;0.50;;
77822;SDS011;67013;49.730;17.292;2024-01-10T11:14:37;0.70;;;0.60;;
77822;SDS011;67013;49.730;17.292;2024-01-10T11:17:33;0.60;;;0.50;;
77822;SDS011;67013;49.730;17.292;2024-01-10T11:20:23;0.60;;;0.60;;
77822;SDS011;67013;49.730;17.292;2024-01-10T11:23:20;0.30;;;0.30;;
77822;SDS011;67013;49.730;17.292;2024-01-10T11:26:03;0.40;;;0.40;;
77822;SDS011;67013;49.730;17.292;2024-01-10T11:28:33;0.80;;;0.60;;
77822;SDS011;67013;49.730;17.292;2024-01-10T11:31:05;0.50;;;0.50;;
77822;SDS011;67013;49.730;17.292;2024-01-10T11:33:36;0.40;;;0.40;;
77822;SDS011;67013;49.730;17.292;2024-01-10T11:36:14;0.80;;;0.70;;
77822;SDS011;67013;49.730;17.292;2024-01-10T11:38:47;0.50;;;0.50;;
77822;SDS011;67013;49.730;17.292;2024-01-10T11:41:22;0.80;;;0.40;;
77822;SDS011;67013;49.730;17.292;2024-01-10T11:46:55;0.50;;;0.50;;
77822;SDS011;67013;49.730;17.292;2024-01-10T11:49:26;0.80;;;0.50;;
77822;SDS011;67013;49.730;17.292;2024-01-10T11:51:56;0.90;;;0.60;;
77822;SDS011;67013;49.730;17.292;2024-01-10T11:54:37;0.40;;;0.40;;
77822;SDS011;67013;49.730;17.292;2024-01-10T11:57:09;0.40;;;0.40;;
77822;SDS011;67013;49.730;17.292;2024-01-10T11:59:41;0.40;;;0.40;;
77822;SDS011;67013;49.730;17.292;2024-01-10T12:04:41;0.60;;;0.60;;
77822;SDS011;67013;49.730;17.292;2024-01-10T12:07:11;0.50;;;0.50;;
77822;SDS011;67013;49.730;17.292;2024-01-10T12:09:42;0.40;;;0.40;;
77822;SDS011;67013;49.730;17.292;2024-01-10T12:12:13;0.50;;;0.50;;
77822;SDS011;67013;49.730;17.292;2024-01-10T12:14:43;0.80;;;0.70;;
77822;SDS011;67013;49.730;17.292;2024-01-10T12:17:13;0.70;;;0.50;;
77822;SDS011;67013;49.730;17.292;2024-01-10T12:19:42;0.40;;;0.40;;
77822;SDS011;67013;49.730;17.292;2024-01-10T12:22:14;0.50;;;0.50;;
77822;SDS011;67013;49.730;17.292;2024-01-10T12:24:45;0.90;;;0.60;;
77822;SDS011;67013;49.730;17.292;2024-01-10T12:27:17;0.50;;;0.40;;
77822;SDS011;67013;49.730;17.292;2024-01-10T12:29:51;0.50;;;0.50;;
77822;SDS011;67013;49.730;17.292;2024-01-10T12:32:21;0.70;;;0.60;;
77822;SDS011;67013;49.730;17.292;2024-01-10T12:34:54;0.60;;;0.60;;
77822;SDS011;67013;49.730;17.292;2024-01-10T12:37:27;0.80;;;0.60;;
77822;SDS011;67013;49.730;17.292;2024-01-10T12:39:57;0.50;;;0.50;;
77822;SDS011;67013;49.730;17.292;2024-01-10T12:42:26;1.00;;;0.70;;
77822;SDS011;67013;49.730;17.292;2024-01-10T12:44:56;0.50;;;0.50;;
77822;SDS011;67013;49.730;17.292;2024-01-10T12:47:26;0.70;;;0.60;;
77822;SDS011;67013;49.730;17.292;2024-01-10T12:49:56;0.70;;;0.50;;
77822;SDS011;67013;49.730;17.292;2024-01-10T12:52:25;1.00;;;0.70;;
77822;SDS011;67013;49.730;17.292;2024-01-10T12:54:55;0.60;;;0.50;;
77822;SDS011;67013;49.730;17.292;2024-01-10T12:57:24;0.60;;;0.50;;
77822;SDS011;67013;49.730;17.292;2024-01-10T12:59:54;0.90;;;0.60;;
77822;SDS011;67013;49.730;17.292;2024-01-10T13:02:23;0.80;;;0.60;;
77822;SDS011;67013;49.730;17.292;2024-01-10T13:04:53;0.70;;;0.50;;
77822;SDS011;67013;49.730;17.292;2024-01-10T13:07:22;0.50;;;0.50;;
77822;SDS011;67013;49.730;17.292;2024-01-10T13:09:52;0.60;;;0.50;;
77822;SDS011;67013;49.730;17.292;2024-01-10T13:12:23;0.70;;;0.50;;
77822;SDS011;67013;49.730;17.292;2024-01-10T13:14:52;1.00;;;0.50;;
77822;SDS011;67013;49.730;17.292;2024-01-10T13:17:22;1.20;;;0.70;;
77822;SDS011;67013;49.730;17.292;2024-01-10T13:19:51;0.70;;;0.50;;
77822;SDS011;67013;49.730;17.292;2024-01-10T13:22:21;0.80;;;0.50;;
77822;SDS011;67013;49.730;17.292;2024-01-10T13:24:50;0.70;;;0.70;;
77822;SDS011;67013;49.730;17.292;2024-01-10T13:27:20;0.60;;;0.50;;
77822;SDS011;67013;49.730;17.292;2024-01-10T13:29:49;0.90;;;0.60;;
77822;SDS011;67013;49.730;17.292;2024-01-10T13:32:19;0.50;;;0.50;;
77822;SDS011;67013;49.730;17.292;2024-01-10T13:34:48;0.40;;;0.40;;
77822;SDS011;67013;49.730;17.292;2024-01-10T13:37:18;1.00;;;0.80;;
77822;SDS011;67013;49.730;17.292;2024-01-10T13:39:47;0.60;;;0.50;;
77822;SDS011;67013;49.730;17.292;2024-01-10T13:42:18;0.50;;;0.50;;
77822;SDS011;67013;49.730;17.292;2024-01-10T13:44:47;0.60;;;0.60;;
77822;SDS011;67013;49.730;17.292;2024-01-10T13:47:18;0.40;;;0.40;;
77822;SDS011;67013;49.730;17.292;2024-01-10T13:49:48;0.70;;;0.70;;
77822;SDS011;67013;49.730;17.292;2024-01-10T13:52:19;0.30;;;0.30;;
77822;SDS011;67013;49.730;17.292;2024-01-10T13:54:48;0.50;;;0.50;;
77822;SDS011;67013;49.730;17.292;2024-01-10T13:57:18;0.80;;;0.70;;
77822;SDS011;67013;49.730;17.292;2024-01-10T13:59:47;0.80;;;0.60;;
77822;SDS011;67013;49.730;17.292;2024-01-10T14:02:17;0.60;;;0.60;;
77822;SDS011;67013;49.730;17.292;2024-01-10T14:04:47;0.80;;;0.60;;
77822;SDS011;67013;49.730;17.292;2024-01-10T14:07:16;0.50;;;0.50;;
77822;SDS011;67013;49.730;17.292;2024-01-10T14:09:46;0.60;;;0.60;;
77822;SDS011;67013;49.730;17.292;2024-01-10T14:12:15;0.60;;;0.50;;
77822;SDS011;67013;49.730;17.292;2024-01-10T14:14:45;0.80;;;0.50;;
77822;SDS011;67013;49.730;17.292;2024-01-10T14:17:14;0.50;;;0.50;;
77822;SDS011;67013;49.730;17.292;2024-01-10T14:19:44;0.80;;;0.60;;
77822;SDS011;67013;49.730;17.292;2024-01-10T14:22:13;0.70;;;0.60;;
77822;SDS011;67013;49.730;17.292;2024-01-10T14:24:44;0.70;;;0.50;;
77822;SDS011;67013;49.730;17.292;2024-01-10T14:27:13;0.80;;;0.60;;
77822;SDS011;67013;49.730;17.292;2024-01-10T14:29:43;0.60;;;0.50;;
77822;SDS011;67013;49.730;17.292;2024-01-10T14:32:13;0.60;;;0.50;;
77822;SDS011;67013;49.730;17.292;2024-01-10T14:34:42;0.70;;;0.60;;
77822;SDS011;67013;49.730;17.292;2024-01-10T14:37:12;0.60;;;0.60;;
77822;SDS011;67013;49.730;17.292;2024-01-10T14:39:42;1.20;;;0.80;;
77822;SDS011;67013;49.730;17.292;2024-01-10T14:42:11;0.90;;;0.60;;
77822;SDS011;67013;49.730;17.292;2024-01-10T14:44:41;0.80;;;0.60;;
77822;SDS011;67013;49.730;17.292;2024-01-10T14:47:11;0.60;;;0.50;;
77822;SDS011;67013;49.730;17.292;2024-01-10T14:49:41;0.70;;;0.50;;
77822;SDS011;67013;49.730;17.292;2024-01-10T14:52:10;0.50;;;0.50;;
77822;SDS011;67013;49.730;17.292;2024-01-10T14:54:40;0.70;;;0.60;;
77822;SDS011;67013;49.730;17.292;2024-01-10T14:57:09;0.70;;;0.60;;
77822;SDS011;67013;49.730;17.292;2024-01-10T14:59:39;0.70;;;0.60;;
77822;SDS011;67013;49.730;17.292;2024-01-10T15:02:09;0.70;;;0.60;;